sensor_id;sensor_type;location;lat;lon;timestamp;temperature;humidity
65058;HTU21D;51644;51.068;5.860;2023-04-19T00:00:36;12.78;65.45
65058;HTU21D;51644;51.068;5.860;2023-04-19T00:01:35;12.81;65.38
65058;HTU21D;51644;51.068;5.860;2023-04-19T00:02:35;12.82;65.35
65058;HTU21D;51644;51.068;5.860;2023-04-19T00:03:34;12.82;65.34
65058;HTU21D;51644;51.068;5.860;2023-04-19T00:04:32;12.81;65.38
65058;HTU21D;51644;51.068;5.860;2023-04-19T00:05:31;12.84;65.37
65058;HTU21D;51644;51.068;5.860;2023-04-19T00:06:30;12.85;65.35
65058;HTU21D;51644;51.068;5.860;2023-04-19T00:07:29;12.88;65.27
65058;HTU21D;51644;51.068;5.860;2023-04-19T00:08:28;12.89;65.25
65058;HTU21D;51644;51.068;5.860;2023-04-19T00:09:27;12.91;65.17
65058;HTU21D;51644;51.068;5.860;2023-04-19T00:10:25;12.91;65.17
65058;HTU21D;51644;51.068;5.860;2023-04-19T00:11:24;12.93;65.12
65058;HTU21D;51644;51.068;5.860;2023-04-19T00:12:22;12.93;65.11
65058;HTU21D;51644;51.068;5.860;2023-04-19T00:13:21;12.93;65.14
65058;HTU21D;51644;51.068;5.860;2023-04-19T00:14:20;12.94;65.12
65058;HTU21D;51644;51.068;5.860;2023-04-19T00:15:18;12.92;65.14
65058;HTU21D;51644;51.068;5.860;2023-04-19T00:16:17;12.94;65.08
65058;HTU21D;51644;51.068;5.860;2023-04-19T00:17:16;12.94;65.05
65058;HTU21D;51644;51.068;5.860;2023-04-19T00:18:14;12.93;65.05
65058;HTU21D;51644;51.068;5.860;2023-04-19T00:19:13;12.94;65.10
65058;HTU21D;51644;51.068;5.860;2023-04-19T00:20:12;12.92;65.10
65058;HTU21D;51644;51.068;5.860;2023-04-19T00:21:11;12.93;65.17
65058;HTU21D;51644;51.068;5.860;2023-04-19T00:22:10;12.91;65.18
65058;HTU21D;51644;51.068;5.860;2023-04-19T00:23:09;12.91;65.19
65058;HTU21D;51644;51.068;5.860;2023-04-19T00:24:07;12.92;65.21
65058;HTU21D;51644;51.068;5.860;2023-04-19T00:25:06;12.95;65.08
65058;HTU21D;51644;51.068;5.860;2023-04-19T00:26:05;12.95;65.04
65058;HTU21D;51644;51.068;5.860;2023-04-19T00:27:04;12.93;65.08
65058;HTU21D;51644;51.068;5.860;2023-04-19T00:28:02;12.94;65.04
65058;HTU21D;51644;51.068;5.860;2023-04-19T00:29:01;12.97;65.02
65058;HTU21D;51644;51.068;5.860;2023-04-19T00:30:00;12.96;65.04
65058;HTU21D;51644;51.068;5.860;2023-04-19T00:30:59;12.96;65.05
65058;HTU21D;51644;51.068;5.860;2023-04-19T00:31:58;12.95;65.07
65058;HTU21D;51644;51.068;5.860;2023-04-19T00:32:56;12.96;65.11
65058;HTU21D;51644;51.068;5.860;2023-04-19T00:33:56;12.97;65.11
65058;HTU21D;51644;51.068;5.860;2023-04-19T00:34:58;12.97;65.13
65058;HTU21D;51644;51.068;5.860;2023-04-19T00:35:56;12.97;65.04
65058;HTU21D;51644;51.068;5.860;2023-04-19T00:36:55;12.96;65.11
65058;HTU21D;51644;51.068;5.860;2023-04-19T00:37:54;12.94;65.09
65058;HTU21D;51644;51.068;5.860;2023-04-19T00:38:52;12.95;65.04
65058;HTU21D;51644;51.068;5.860;2023-04-19T00:39:51;12.96;65.05
65058;HTU21D;51644;51.068;5.860;2023-04-19T00:40:49;12.96;65.03
65058;HTU21D;51644;51.068;5.860;2023-04-19T00:41:48;12.99;64.98
65058;HTU21D;51644;51.068;5.860;2023-04-19T00:42:47;13.00;64.95
65058;HTU21D;51644;51.068;5.860;2023-04-19T00:43:45;13.01;64.82
65058;HTU21D;51644;51.068;5.860;2023-04-19T00:44:44;13.00;64.86
65058;HTU21D;51644;51.068;5.860;2023-04-19T00:45:42;13.01;64.89
65058;HTU21D;51644;51.068;5.860;2023-04-19T00:46:42;12.97;64.98
65058;HTU21D;51644;51.068;5.860;2023-04-19T00:47:41;12.99;64.95
65058;HTU21D;51644;51.068;5.860;2023-04-19T00:48:41;12.97;65.03
65058;HTU21D;51644;51.068;5.860;2023-04-19T00:49:40;12.99;65.01
65058;HTU21D;51644;51.068;5.860;2023-04-19T00:50:40;12.96;65.07
65058;HTU21D;51644;51.068;5.860;2023-04-19T00:51:39;12.94;65.12
65058;HTU21D;51644;51.068;5.860;2023-04-19T00:52:38;12.99;64.99
65058;HTU21D;51644;51.068;5.860;2023-04-19T00:53:37;13.00;65.02
65058;HTU21D;51644;51.068;5.860;2023-04-19T00:54:38;12.96;65.03
65058;HTU21D;51644;51.068;5.860;2023-04-19T00:55:39;12.99;65.09
65058;HTU21D;51644;51.068;5.860;2023-04-19T00:56:38;12.97;65.08
65058;HTU21D;51644;51.068;5.860;2023-04-19T00:57:37;12.99;65.11
65058;HTU21D;51644;51.068;5.860;2023-04-19T00:58:37;12.97;65.17
65058;HTU21D;51644;51.068;5.860;2023-04-19T00:59:39;12.97;65.14
65058;HTU21D;51644;51.068;5.860;2023-04-19T01:00:39;12.96;65.21
65058;HTU21D;51644;51.068;5.860;2023-04-19T01:01:38;12.99;65.13
65058;HTU21D;51644;51.068;5.860;2023-04-19T01:02:36;12.99;65.17
65058;HTU21D;51644;51.068;5.860;2023-04-19T01:03:35;12.99;65.23
65058;HTU21D;51644;51.068;5.860;2023-04-19T01:04:34;12.99;65.21
65058;HTU21D;51644;51.068;5.860;2023-04-19T01:05:33;13.00;65.14
65058;HTU21D;51644;51.068;5.860;2023-04-19T01:06:32;13.01;65.14
65058;HTU21D;51644;51.068;5.860;2023-04-19T01:07:32;13.00;65.12
65058;HTU21D;51644;51.068;5.860;2023-04-19T01:08:36;13.02;65.11
65058;HTU21D;51644;51.068;5.860;2023-04-19T01:09:39;13.01;65.13
65058;HTU21D;51644;51.068;5.860;2023-04-19T01:10:40;13.00;65.17
65058;HTU21D;51644;51.068;5.860;2023-04-19T01:11:54;13.01;65.14
65058;HTU21D;51644;51.068;5.860;2023-04-19T01:12:53;13.01;65.13
65058;HTU21D;51644;51.068;5.860;2023-04-19T01:13:51;13.03;65.14
65058;HTU21D;51644;51.068;5.860;2023-04-19T01:14:55;13.05;65.15
65058;HTU21D;51644;51.068;5.860;2023-04-19T01:15:59;13.05;65.10
65058;HTU21D;51644;51.068;5.860;2023-04-19T01:16:58;13.05;65.14
65058;HTU21D;51644;51.068;5.860;2023-04-19T01:17:58;13.07;65.12
65058;HTU21D;51644;51.068;5.860;2023-04-19T01:18:59;13.06;65.19
65058;HTU21D;51644;51.068;5.860;2023-04-19T01:20:08;13.05;65.13
65058;HTU21D;51644;51.068;5.860;2023-04-19T01:21:08;13.06;65.04
65058;HTU21D;51644;51.068;5.860;2023-04-19T01:22:07;13.06;65.11
65058;HTU21D;51644;51.068;5.860;2023-04-19T01:23:17;13.05;65.11
65058;HTU21D;51644;51.068;5.860;2023-04-19T01:24:19;13.01;65.21
65058;HTU21D;51644;51.068;5.860;2023-04-19T01:25:21;13.02;65.25
65058;HTU21D;51644;51.068;5.860;2023-04-19T01:26:20;13.02;65.27
65058;HTU21D;51644;51.068;5.860;2023-04-19T01:27:18;12.99;65.36
65058;HTU21D;51644;51.068;5.860;2023-04-19T01:28:17;12.97;65.42
65058;HTU21D;51644;51.068;5.860;2023-04-19T01:29:16;12.93;65.50
65058;HTU21D;51644;51.068;5.860;2023-04-19T01:30:17;12.92;65.54
65058;HTU21D;51644;51.068;5.860;2023-04-19T01:31:16;12.91;65.63
65058;HTU21D;51644;51.068;5.860;2023-04-19T01:32:16;12.88;65.73
65058;HTU21D;51644;51.068;5.860;2023-04-19T01:33:15;12.89;65.72
65058;HTU21D;51644;51.068;5.860;2023-04-19T01:34:14;12.88;65.82
65058;HTU21D;51644;51.068;5.860;2023-04-19T01:35:18;12.88;65.93
65058;HTU21D;51644;51.068;5.860;2023-04-19T01:36:18;12.88;65.93
65058;HTU21D;51644;51.068;5.860;2023-04-19T01:37:19;12.87;65.97
65058;HTU21D;51644;51.068;5.860;2023-04-19T01:38:18;12.87;65.98
65058;HTU21D;51644;51.068;5.860;2023-04-19T01:39:16;12.87;65.99
65058;HTU21D;51644;51.068;5.860;2023-04-19T01:40:15;12.86;66.00
65058;HTU21D;51644;51.068;5.860;2023-04-19T01:41:18;12.85;66.01
65058;HTU21D;51644;51.068;5.860;2023-04-19T01:42:26;12.86;66.07
65058;HTU21D;51644;51.068;5.860;2023-04-19T01:43:25;12.85;66.13
65058;HTU21D;51644;51.068;5.860;2023-04-19T01:44:26;12.86;66.15
65058;HTU21D;51644;51.068;5.860;2023-04-19T01:45:26;12.85;66.13
65058;HTU21D;51644;51.068;5.860;2023-04-19T01:46:25;12.84;66.16
65058;HTU21D;51644;51.068;5.860;2023-04-19T01:47:23;12.82;66.20
65058;HTU21D;51644;51.068;5.860;2023-04-19T01:48:24;12.84;66.20
65058;HTU21D;51644;51.068;5.860;2023-04-19T01:49:23;12.81;66.25
65058;HTU21D;51644;51.068;5.860;2023-04-19T01:50:21;12.81;66.25
65058;HTU21D;51644;51.068;5.860;2023-04-19T01:51:20;12.82;66.27
65058;HTU21D;51644;51.068;5.860;2023-04-19T01:52:21;12.82;66.24
65058;HTU21D;51644;51.068;5.860;2023-04-19T01:53:24;12.82;66.24
65058;HTU21D;51644;51.068;5.860;2023-04-19T01:54:23;12.82;66.20
65058;HTU21D;51644;51.068;5.860;2023-04-19T01:55:22;12.80;66.24
65058;HTU21D;51644;51.068;5.860;2023-04-19T01:56:24;12.82;66.27
65058;HTU21D;51644;51.068;5.860;2023-04-19T01:57:23;12.81;66.30
65058;HTU21D;51644;51.068;5.860;2023-04-19T01:58:22;12.82;66.33
65058;HTU21D;51644;51.068;5.860;2023-04-19T01:59:24;12.81;66.30
65058;HTU21D;51644;51.068;5.860;2023-04-19T02:00:23;12.79;66.40
65058;HTU21D;51644;51.068;5.860;2023-04-19T02:01:21;12.79;66.42
65058;HTU21D;51644;51.068;5.860;2023-04-19T02:02:20;12.78;66.49
65058;HTU21D;51644;51.068;5.860;2023-04-19T02:03:18;12.80;66.46
65058;HTU21D;51644;51.068;5.860;2023-04-19T02:04:19;12.80;66.47
65058;HTU21D;51644;51.068;5.860;2023-04-19T02:05:19;12.79;66.53
65058;HTU21D;51644;51.068;5.860;2023-04-19T02:06:21;12.78;66.54
65058;HTU21D;51644;51.068;5.860;2023-04-19T02:07:21;12.77;66.64
65058;HTU21D;51644;51.068;5.860;2023-04-19T02:08:26;12.78;66.59
65058;HTU21D;51644;51.068;5.860;2023-04-19T02:09:25;12.75;66.75
65058;HTU21D;51644;51.068;5.860;2023-04-19T02:10:23;12.76;66.75
65058;HTU21D;51644;51.068;5.860;2023-04-19T02:11:22;12.76;66.77
65058;HTU21D;51644;51.068;5.860;2023-04-19T02:12:23;12.75;66.81
65058;HTU21D;51644;51.068;5.860;2023-04-19T02:13:22;12.75;66.84
65058;HTU21D;51644;51.068;5.860;2023-04-19T02:14:21;12.75;66.92
65058;HTU21D;51644;51.068;5.860;2023-04-19T02:15:19;12.76;66.88
65058;HTU21D;51644;51.068;5.860;2023-04-19T02:16:30;12.77;66.87
65058;HTU21D;51644;51.068;5.860;2023-04-19T02:17:29;12.76;66.86
65058;HTU21D;51644;51.068;5.860;2023-04-19T02:18:29;12.74;66.94
65058;HTU21D;51644;51.068;5.860;2023-04-19T02:19:28;12.74;66.96
65058;HTU21D;51644;51.068;5.860;2023-04-19T02:20:26;12.72;67.02
65058;HTU21D;51644;51.068;5.860;2023-04-19T02:21:25;12.69;67.11
65058;HTU21D;51644;51.068;5.860;2023-04-19T02:22:24;12.64;67.18
65058;HTU21D;51644;51.068;5.860;2023-04-19T02:23:23;12.59;67.41
65058;HTU21D;51644;51.068;5.860;2023-04-19T02:24:24;12.56;67.46
65058;HTU21D;51644;51.068;5.860;2023-04-19T02:25:34;12.50;67.70
65058;HTU21D;51644;51.068;5.860;2023-04-19T02:26:35;12.44;67.90
65058;HTU21D;51644;51.068;5.860;2023-04-19T02:27:34;12.40;68.07
65058;HTU21D;51644;51.068;5.860;2023-04-19T02:28:32;12.35;68.27
65058;HTU21D;51644;51.068;5.860;2023-04-19T02:29:31;12.30;68.49
65058;HTU21D;51644;51.068;5.860;2023-04-19T02:30:30;12.25;68.71
65058;HTU21D;51644;51.068;5.860;2023-04-19T02:31:29;12.19;68.90
65058;HTU21D;51644;51.068;5.860;2023-04-19T02:32:31;12.15;69.09
65058;HTU21D;51644;51.068;5.860;2023-04-19T02:33:32;12.11;69.26
65058;HTU21D;51644;51.068;5.860;2023-04-19T02:34:33;12.06;69.43
65058;HTU21D;51644;51.068;5.860;2023-04-19T02:35:32;12.04;69.55
65058;HTU21D;51644;51.068;5.860;2023-04-19T02:36:31;12.01;69.71
65058;HTU21D;51644;51.068;5.860;2023-04-19T02:37:29;11.97;69.89
65058;HTU21D;51644;51.068;5.860;2023-04-19T02:38:28;11.94;69.98
65058;HTU21D;51644;51.068;5.860;2023-04-19T02:39:27;11.91;70.07
65058;HTU21D;51644;51.068;5.860;2023-04-19T02:40:26;11.87;70.20
65058;HTU21D;51644;51.068;5.860;2023-04-19T02:41:24;11.87;70.35
65058;HTU21D;51644;51.068;5.860;2023-04-19T02:42:23;11.84;70.41
65058;HTU21D;51644;51.068;5.860;2023-04-19T02:43:25;11.82;70.55
65058;HTU21D;51644;51.068;5.860;2023-04-19T02:44:23;11.78;70.68
65058;HTU21D;51644;51.068;5.860;2023-04-19T02:45:22;11.76;70.79
65058;HTU21D;51644;51.068;5.860;2023-04-19T02:46:21;11.74;70.90
65058;HTU21D;51644;51.068;5.860;2023-04-19T02:47:19;11.71;71.02
65058;HTU21D;51644;51.068;5.860;2023-04-19T02:48:18;11.68;71.23
65058;HTU21D;51644;51.068;5.860;2023-04-19T02:49:18;11.69;71.24
65058;HTU21D;51644;51.068;5.860;2023-04-19T02:50:19;11.66;71.33
65058;HTU21D;51644;51.068;5.860;2023-04-19T02:51:21;11.64;71.48
65058;HTU21D;51644;51.068;5.860;2023-04-19T02:52:27;11.58;71.71
65058;HTU21D;51644;51.068;5.860;2023-04-19T02:53:26;11.55;71.84
65058;HTU21D;51644;51.068;5.860;2023-04-19T02:54:24;11.57;71.81
65058;HTU21D;51644;51.068;5.860;2023-04-19T02:55:26;11.54;71.98
65058;HTU21D;51644;51.068;5.860;2023-04-19T02:56:35;11.54;71.98
65058;HTU21D;51644;51.068;5.860;2023-04-19T02:57:34;11.49;72.06
65058;HTU21D;51644;51.068;5.860;2023-04-19T02:58:39;11.49;72.22
65058;HTU21D;51644;51.068;5.860;2023-04-19T02:59:40;11.47;72.25
65058;HTU21D;51644;51.068;5.860;2023-04-19T03:00:39;11.46;72.34
65058;HTU21D;51644;51.068;5.860;2023-04-19T03:01:44;11.44;72.51
65058;HTU21D;51644;51.068;5.860;2023-04-19T03:02:43;11.44;72.53
65058;HTU21D;51644;51.068;5.860;2023-04-19T03:03:46;11.43;72.62
65058;HTU21D;51644;51.068;5.860;2023-04-19T03:04:45;11.42;72.70
65058;HTU21D;51644;51.068;5.860;2023-04-19T03:05:44;11.42;72.79
65058;HTU21D;51644;51.068;5.860;2023-04-19T03:06:43;11.41;72.82
65058;HTU21D;51644;51.068;5.860;2023-04-19T03:07:42;11.40;72.86
65058;HTU21D;51644;51.068;5.860;2023-04-19T03:08:41;11.37;72.96
65058;HTU21D;51644;51.068;5.860;2023-04-19T03:09:39;11.34;73.10
65058;HTU21D;51644;51.068;5.860;2023-04-19T03:10:38;11.34;73.17
65058;HTU21D;51644;51.068;5.860;2023-04-19T03:11:36;11.34;73.25
65058;HTU21D;51644;51.068;5.860;2023-04-19T03:12:36;11.32;73.29
65058;HTU21D;51644;51.068;5.860;2023-04-19T03:13:34;11.30;73.38
65058;HTU21D;51644;51.068;5.860;2023-04-19T03:14:33;11.31;73.36
65058;HTU21D;51644;51.068;5.860;2023-04-19T03:15:33;11.29;73.44
65058;HTU21D;51644;51.068;5.860;2023-04-19T03:16:31;11.27;73.67
65058;HTU21D;51644;51.068;5.860;2023-04-19T03:17:31;11.27;73.57
65058;HTU21D;51644;51.068;5.860;2023-04-19T03:18:29;11.27;73.71
65058;HTU21D;51644;51.068;5.860;2023-04-19T03:19:29;11.26;73.68
65058;HTU21D;51644;51.068;5.860;2023-04-19T03:20:27;11.24;73.77
65058;HTU21D;51644;51.068;5.860;2023-04-19T03:21:27;11.22;73.86
65058;HTU21D;51644;51.068;5.860;2023-04-19T03:22:27;11.20;73.93
65058;HTU21D;51644;51.068;5.860;2023-04-19T03:23:26;11.18;74.13
65058;HTU21D;51644;51.068;5.860;2023-04-19T03:24:29;11.17;74.14
65058;HTU21D;51644;51.068;5.860;2023-04-19T03:25:30;11.15;74.25
65058;HTU21D;51644;51.068;5.860;2023-04-19T03:26:41;11.13;74.36
65058;HTU21D;51644;51.068;5.860;2023-04-19T03:27:40;11.10;74.83
65058;HTU21D;51644;51.068;5.860;2023-04-19T03:28:43;11.13;74.50
65058;HTU21D;51644;51.068;5.860;2023-04-19T03:29:47;11.11;74.55
65058;HTU21D;51644;51.068;5.860;2023-04-19T03:30:46;11.10;74.60
65058;HTU21D;51644;51.068;5.860;2023-04-19T03:31:44;11.10;74.71
65058;HTU21D;51644;51.068;5.860;2023-04-19T03:32:50;11.09;74.76
65058;HTU21D;51644;51.068;5.860;2023-04-19T03:33:49;11.09;74.83
65058;HTU21D;51644;51.068;5.860;2023-04-19T03:34:49;11.07;74.91
65058;HTU21D;51644;51.068;5.860;2023-04-19T03:35:48;11.05;74.98
65058;HTU21D;51644;51.068;5.860;2023-04-19T03:36:47;11.05;75.09
65058;HTU21D;51644;51.068;5.860;2023-04-19T03:37:46;11.03;75.08
65058;HTU21D;51644;51.068;5.860;2023-04-19T03:38:44;11.05;75.12
65058;HTU21D;51644;51.068;5.860;2023-04-19T03:39:48;11.02;75.18
65058;HTU21D;51644;51.068;5.860;2023-04-19T03:40:52;11.00;75.21
65058;HTU21D;51644;51.068;5.860;2023-04-19T03:41:52;11.01;75.25
65058;HTU21D;51644;51.068;5.860;2023-04-19T03:43:29;11.03;75.29
65058;HTU21D;51644;51.068;5.860;2023-04-19T03:44:31;11.01;75.37
65058;HTU21D;51644;51.068;5.860;2023-04-19T03:45:30;11.00;75.44
65058;HTU21D;51644;51.068;5.860;2023-04-19T03:46:46;11.02;75.49
65058;HTU21D;51644;51.068;5.860;2023-04-19T03:47:48;11.04;75.49
65058;HTU21D;51644;51.068;5.860;2023-04-19T03:49:02;11.08;75.48
65058;HTU21D;51644;51.068;5.860;2023-04-19T03:50:02;11.09;75.47
65058;HTU21D;51644;51.068;5.860;2023-04-19T03:51:02;11.12;75.44
65058;HTU21D;51644;51.068;5.860;2023-04-19T03:52:01;11.15;75.47
65058;HTU21D;51644;51.068;5.860;2023-04-19T03:53:14;11.22;75.43
65058;HTU21D;51644;51.068;5.860;2023-04-19T03:54:36;11.28;75.30
65058;HTU21D;51644;51.068;5.860;2023-04-19T03:55:37;11.33;75.19
65058;HTU21D;51644;51.068;5.860;2023-04-19T03:56:36;11.39;75.11
65058;HTU21D;51644;51.068;5.860;2023-04-19T03:57:35;11.42;75.09
65058;HTU21D;51644;51.068;5.860;2023-04-19T03:58:40;11.46;75.02
65058;HTU21D;51644;51.068;5.860;2023-04-19T03:59:42;11.53;74.90
65058;HTU21D;51644;51.068;5.860;2023-04-19T04:01:01;11.55;74.94
65058;HTU21D;51644;51.068;5.860;2023-04-19T04:02:17;11.58;74.96
65058;HTU21D;51644;51.068;5.860;2023-04-19T04:03:16;11.60;74.99
65058;HTU21D;51644;51.068;5.860;2023-04-19T04:04:15;11.66;74.99
65058;HTU21D;51644;51.068;5.860;2023-04-19T04:05:14;11.68;74.94
65058;HTU21D;51644;51.068;5.860;2023-04-19T04:06:14;11.70;75.05
65058;HTU21D;51644;51.068;5.860;2023-04-19T04:07:13;11.70;75.04
65058;HTU21D;51644;51.068;5.860;2023-04-19T04:08:11;11.74;74.98
65058;HTU21D;51644;51.068;5.860;2023-04-19T04:09:12;11.74;75.06
65058;HTU21D;51644;51.068;5.860;2023-04-19T04:10:10;11.78;75.07
65058;HTU21D;51644;51.068;5.860;2023-04-19T04:11:13;11.81;74.97
65058;HTU21D;51644;51.068;5.860;2023-04-19T04:12:12;11.84;74.96
65058;HTU21D;51644;51.068;5.860;2023-04-19T04:13:11;11.85;74.96
65058;HTU21D;51644;51.068;5.860;2023-04-19T04:14:20;11.88;74.96
65058;HTU21D;51644;51.068;5.860;2023-04-19T04:15:19;11.92;74.93
65058;HTU21D;51644;51.068;5.860;2023-04-19T04:16:23;11.94;74.86
65058;HTU21D;51644;51.068;5.860;2023-04-19T04:17:25;11.97;74.79
65058;HTU21D;51644;51.068;5.860;2023-04-19T04:18:24;11.96;74.91
65058;HTU21D;51644;51.068;5.860;2023-04-19T04:19:24;12.00;74.73
65058;HTU21D;51644;51.068;5.860;2023-04-19T04:20:23;12.02;74.70
65058;HTU21D;51644;51.068;5.860;2023-04-19T04:21:36;12.02;74.79
65058;HTU21D;51644;51.068;5.860;2023-04-19T04:22:56;12.04;74.65
65058;HTU21D;51644;51.068;5.860;2023-04-19T04:23:58;12.06;74.66
65058;HTU21D;51644;51.068;5.860;2023-04-19T04:25:29;12.10;74.54
65058;HTU21D;51644;51.068;5.860;2023-04-19T04:26:32;12.12;74.48
65058;HTU21D;51644;51.068;5.860;2023-04-19T04:27:51;12.15;74.36
65058;HTU21D;51644;51.068;5.860;2023-04-19T04:28:52;12.15;74.30
65058;HTU21D;51644;51.068;5.860;2023-04-19T04:29:51;12.15;74.26
65058;HTU21D;51644;51.068;5.860;2023-04-19T04:30:50;12.16;74.20
65058;HTU21D;51644;51.068;5.860;2023-04-19T04:31:49;12.16;74.22
65058;HTU21D;51644;51.068;5.860;2023-04-19T04:32:51;12.14;74.36
65058;HTU21D;51644;51.068;5.860;2023-04-19T04:33:49;12.13;74.19
65058;HTU21D;51644;51.068;5.860;2023-04-19T04:34:53;12.10;74.31
65058;HTU21D;51644;51.068;5.860;2023-04-19T04:36:00;12.10;74.22
65058;HTU21D;51644;51.068;5.860;2023-04-19T04:37:03;12.12;74.06
65058;HTU21D;51644;51.068;5.860;2023-04-19T04:38:09;12.13;74.04
65058;HTU21D;51644;51.068;5.860;2023-04-19T04:39:10;12.13;74.04
65058;HTU21D;51644;51.068;5.860;2023-04-19T04:40:10;12.15;73.96
65058;HTU21D;51644;51.068;5.860;2023-04-19T04:41:10;12.17;73.95
65058;HTU21D;51644;51.068;5.860;2023-04-19T04:42:09;12.20;73.81
65058;HTU21D;51644;51.068;5.860;2023-04-19T04:43:11;12.16;73.90
65058;HTU21D;51644;51.068;5.860;2023-04-19T04:44:10;12.16;73.77
65058;HTU21D;51644;51.068;5.860;2023-04-19T04:45:10;12.19;73.67
65058;HTU21D;51644;51.068;5.860;2023-04-19T04:46:14;12.21;73.53
65058;HTU21D;51644;51.068;5.860;2023-04-19T04:47:13;12.23;73.49
65058;HTU21D;51644;51.068;5.860;2023-04-19T04:48:20;12.26;73.38
65058;HTU21D;51644;51.068;5.860;2023-04-19T04:49:20;12.28;73.32
65058;HTU21D;51644;51.068;5.860;2023-04-19T04:50:19;12.29;73.22
65058;HTU21D;51644;51.068;5.860;2023-04-19T04:51:19;12.31;73.14
65058;HTU21D;51644;51.068;5.860;2023-04-19T04:52:21;12.33;72.99
65058;HTU21D;51644;51.068;5.860;2023-04-19T04:53:30;12.33;73.05
65058;HTU21D;51644;51.068;5.860;2023-04-19T04:54:30;12.34;72.98
65058;HTU21D;51644;51.068;5.860;2023-04-19T04:55:30;12.36;72.92
65058;HTU21D;51644;51.068;5.860;2023-04-19T04:56:29;12.37;72.89
65058;HTU21D;51644;51.068;5.860;2023-04-19T04:57:30;12.40;72.81
65058;HTU21D;51644;51.068;5.860;2023-04-19T04:58:30;12.40;72.77
65058;HTU21D;51644;51.068;5.860;2023-04-19T04:59:40;12.42;72.71
65058;HTU21D;51644;51.068;5.860;2023-04-19T05:00:39;12.45;72.66
65058;HTU21D;51644;51.068;5.860;2023-04-19T05:01:40;12.46;72.61
65058;HTU21D;51644;51.068;5.860;2023-04-19T05:02:39;12.45;72.51
65058;HTU21D;51644;51.068;5.860;2023-04-19T05:03:51;12.50;72.49
65058;HTU21D;51644;51.068;5.860;2023-04-19T05:04:51;12.52;72.36
65058;HTU21D;51644;51.068;5.860;2023-04-19T05:05:50;12.53;72.30
65058;HTU21D;51644;51.068;5.860;2023-04-19T05:06:49;12.55;72.19
65058;HTU21D;51644;51.068;5.860;2023-04-19T05:07:53;12.58;72.10
65058;HTU21D;51644;51.068;5.860;2023-04-19T05:08:51;12.61;71.91
65058;HTU21D;51644;51.068;5.860;2023-04-19T05:09:57;12.62;71.87
65058;HTU21D;51644;51.068;5.860;2023-04-19T05:11:00;12.59;71.93
65058;HTU21D;51644;51.068;5.860;2023-04-19T05:12:03;12.60;71.90
65058;HTU21D;51644;51.068;5.860;2023-04-19T05:13:02;12.60;71.86
65058;HTU21D;51644;51.068;5.860;2023-04-19T05:14:02;12.61;71.84
65058;HTU21D;51644;51.068;5.860;2023-04-19T05:15:02;12.63;71.80
65058;HTU21D;51644;51.068;5.860;2023-04-19T05:16:01;12.62;71.84
65058;HTU21D;51644;51.068;5.860;2023-04-19T05:16:59;12.64;71.77
65058;HTU21D;51644;51.068;5.860;2023-04-19T05:18:01;12.65;71.67
65058;HTU21D;51644;51.068;5.860;2023-04-19T05:19:00;12.66;71.60
65058;HTU21D;51644;51.068;5.860;2023-04-19T05:20:05;12.66;71.53
65058;HTU21D;51644;51.068;5.860;2023-04-19T05:21:08;12.65;71.58
65058;HTU21D;51644;51.068;5.860;2023-04-19T05:22:08;12.67;71.50
65058;HTU21D;51644;51.068;5.860;2023-04-19T05:23:08;12.66;71.40
65058;HTU21D;51644;51.068;5.860;2023-04-19T05:24:08;12.67;71.36
65058;HTU21D;51644;51.068;5.860;2023-04-19T05:25:09;12.71;71.32
65058;HTU21D;51644;51.068;5.860;2023-04-19T05:26:08;12.71;71.25
65058;HTU21D;51644;51.068;5.860;2023-04-19T05:27:13;12.72;71.15
65058;HTU21D;51644;51.068;5.860;2023-04-19T05:28:11;12.73;70.90
65058;HTU21D;51644;51.068;5.860;2023-04-19T05:29:18;12.74;70.87
65058;HTU21D;51644;51.068;5.860;2023-04-19T05:30:25;12.76;70.78
65058;HTU21D;51644;51.068;5.860;2023-04-19T05:31:24;12.78;70.71
65058;HTU21D;51644;51.068;5.860;2023-04-19T05:32:41;12.81;70.60
65058;HTU21D;51644;51.068;5.860;2023-04-19T05:33:42;12.82;70.53
65058;HTU21D;51644;51.068;5.860;2023-04-19T05:34:41;12.85;70.44
65058;HTU21D;51644;51.068;5.860;2023-04-19T05:35:43;12.86;70.32
65058;HTU21D;51644;51.068;5.860;2023-04-19T05:36:43;12.89;70.09
65058;HTU21D;51644;51.068;5.860;2023-04-19T05:37:41;12.90;69.97
65058;HTU21D;51644;51.068;5.860;2023-04-19T05:38:40;12.93;69.90
65058;HTU21D;51644;51.068;5.860;2023-04-19T05:39:39;12.97;69.68
65058;HTU21D;51644;51.068;5.860;2023-04-19T05:40:37;13.01;69.61
65058;HTU21D;51644;51.068;5.860;2023-04-19T05:41:37;13.02;69.52
65058;HTU21D;51644;51.068;5.860;2023-04-19T05:42:36;13.04;69.41
65058;HTU21D;51644;51.068;5.860;2023-04-19T05:43:35;13.06;69.23
65058;HTU21D;51644;51.068;5.860;2023-04-19T05:44:34;13.10;68.94
65058;HTU21D;51644;51.068;5.860;2023-04-19T05:45:33;13.14;68.91
65058;HTU21D;51644;51.068;5.860;2023-04-19T05:46:32;13.16;68.78
65058;HTU21D;51644;51.068;5.860;2023-04-19T05:47:31;13.20;68.64
65058;HTU21D;51644;51.068;5.860;2023-04-19T05:48:43;13.25;68.44
65058;HTU21D;51644;51.068;5.860;2023-04-19T05:50:02;13.31;68.11
65058;HTU21D;51644;51.068;5.860;2023-04-19T05:51:08;13.34;67.97
65058;HTU21D;51644;51.068;5.860;2023-04-19T05:52:33;13.37;67.69
65058;HTU21D;51644;51.068;5.860;2023-04-19T05:53:32;13.34;67.62
65058;HTU21D;51644;51.068;5.860;2023-04-19T05:54:31;13.33;67.55
65058;HTU21D;51644;51.068;5.860;2023-04-19T05:55:33;13.30;67.68
65058;HTU21D;51644;51.068;5.860;2023-04-19T05:56:32;13.27;67.62
65058;HTU21D;51644;51.068;5.860;2023-04-19T05:57:30;13.23;67.78
65058;HTU21D;51644;51.068;5.860;2023-04-19T05:58:29;13.22;67.91
65058;HTU21D;51644;51.068;5.860;2023-04-19T05:59:28;13.19;68.01
65058;HTU21D;51644;51.068;5.860;2023-04-19T06:00:27;13.17;68.01
65058;HTU21D;51644;51.068;5.860;2023-04-19T06:01:32;13.11;68.03
65058;HTU21D;51644;51.068;5.860;2023-04-19T06:02:32;13.08;68.07
65058;HTU21D;51644;51.068;5.860;2023-04-19T06:03:31;13.04;68.20
65058;HTU21D;51644;51.068;5.860;2023-04-19T06:04:31;13.01;68.35
65058;HTU21D;51644;51.068;5.860;2023-04-19T06:05:29;12.97;68.38
65058;HTU21D;51644;51.068;5.860;2023-04-19T06:06:28;12.97;68.30
65058;HTU21D;51644;51.068;5.860;2023-04-19T06:07:26;12.97;68.17
65058;HTU21D;51644;51.068;5.860;2023-04-19T06:08:25;12.97;68.12
65058;HTU21D;51644;51.068;5.860;2023-04-19T06:09:26;12.99;68.13
65058;HTU21D;51644;51.068;5.860;2023-04-19T06:10:24;13.02;68.03
65058;HTU21D;51644;51.068;5.860;2023-04-19T06:11:23;13.01;68.04
65058;HTU21D;51644;51.068;5.860;2023-04-19T06:12:22;13.03;67.92
65058;HTU21D;51644;51.068;5.860;2023-04-19T06:13:21;13.05;67.93
65058;HTU21D;51644;51.068;5.860;2023-04-19T06:14:20;13.12;67.79
65058;HTU21D;51644;51.068;5.860;2023-04-19T06:15:19;13.21;67.52
65058;HTU21D;51644;51.068;5.860;2023-04-19T06:16:18;13.27;67.42
65058;HTU21D;51644;51.068;5.860;2023-04-19T06:17:17;13.34;67.13
65058;HTU21D;51644;51.068;5.860;2023-04-19T06:18:20;13.43;66.94
65058;HTU21D;51644;51.068;5.860;2023-04-19T06:19:19;13.52;66.63